Time;durP1;ratioP1;P1;durP2;ratioP2;P2;SDS_P1;SDS_P2;PMS_P1;PMS_P2;Temp;Humidity;BMP_temperature;BMP_pressure;BME280_temperature;BME280_humidity;BME280_pressure;Samples;Min_cycle;Max_cycle;Signal;HPM_P1;HPM_P2
2023/03/24 00:02:19;;;;;;;6.05;2.72;;;11.90;99.90;;;;;;5085965;28;20024;-84
2023/03/24 00:04:49;;;;;;;4.72;2.30;;;11.90;99.90;;;;;;5085284;28;20130;-81
2023/03/24 00:07:18;;;;;;;6.50;2.60;;;11.90;99.90;;;;;;5080488;28;20132;-82
2023/03/24 00:09:44;;;;;;;2.85;2.10;;;12.00;99.90;;;;;;5084210;28;20035;-81
2023/03/24 00:12:13;;;;;;;2.95;2.17;;;12.00;99.90;;;;;;5086981;28;20525;-81
2023/03/24 00:14:40;;;;;;;4.95;2.30;;;12.00;99.90;;;;;;5086892;28;20077;-81
2023/03/24 00:17:08;;;;;;;5.20;2.25;;;12.00;99.90;;;;;;5087969;28;20039;-81
2023/03/24 00:19:38;;;;;;;5.45;2.90;;;12.00;99.90;;;;;;5086907;28;20035;-81
2023/03/24 00:22:08;;;;;;;4.80;2.30;;;12.00;99.90;;;;;;5086620;28;20495;-81
2023/03/24 00:24:34;;;;;;;4.75;2.33;;;12.10;99.90;;;;;;5086010;28;20042;-81
2023/03/24 00:27:02;;;;;;;2.72;2.20;;;12.00;99.90;;;;;;5082026;28;20027;-81
2023/03/24 00:29:28;;;;;;;3.80;2.30;;;12.10;99.90;;;;;;5087344;28;20043;-82
2023/03/24 00:31:54;;;;;;;4.50;2.58;;;12.10;99.90;;;;;;5084672;28;20032;-81
2023/03/24 00:34:22;;;;;;;10.20;2.90;;;12.10;99.90;;;;;;5086582;28;20288;-80
2023/03/24 00:36:49;;;;;;;6.28;3.10;;;12.10;99.90;;;;;;5087653;28;20043;-81
2023/03/24 00:39:17;;;;;;;5.75;3.15;;;12.10;99.90;;;;;;5085657;28;20031;-82
2023/03/24 00:41:44;;;;;;;9.75;3.42;;;12.10;99.90;;;;;;5087902;28;20024;-80
2023/03/24 00:44:16;;;;;;;6.40;2.92;;;12.00;99.90;;;;;;5084930;28;20055;-81
2023/03/24 00:46:54;;;;;;;9.02;3.28;;;12.00;99.90;;;;;;5082983;28;20381;-80
2023/03/24 00:49:41;;;;;;;6.18;2.88;;;12.00;99.90;;;;;;5081869;28;20421;-83
2023/03/24 00:52:19;;;;;;;3.88;2.70;;;12.00;99.90;;;;;;5085651;28;20052;-81
2023/03/24 00:54:47;;;;;;;4.63;2.55;;;11.90;99.90;;;;;;5086336;28;20052;-81
2023/03/24 00:57:20;;;;;;;7.90;3.13;;;11.90;99.90;;;;;;5085355;28;20032;-82
2023/03/24 00:59:47;;;;;;;5.95;3.15;;;11.80;99.90;;;;;;5083186;28;20028;-80
2023/03/24 01:02:17;;;;;;;7.00;2.63;;;11.80;99.90;;;;;;5085979;28;20024;-82
2023/03/24 01:04:46;;;;;;;6.30;2.13;;;11.80;99.90;;;;;;5082955;28;20060;-80
2023/03/24 01:07:17;;;;;;;7.30;3.15;;;11.70;99.90;;;;;;5084762;28;20394;-81
2023/03/24 01:09:50;;;;;;;5.10;2.80;;;11.70;99.90;;;;;;5086583;28;20032;-81
2023/03/24 01:12:20;;;;;;;6.38;3.05;;;11.70;99.90;;;;;;5085325;28;20032;-80
2023/03/24 01:14:46;;;;;;;5.65;2.35;;;11.70;99.90;;;;;;5082083;28;20062;-80
2023/03/24 01:17:12;;;;;;;4.50;2.45;;;11.60;99.90;;;;;;5084617;28;20109;-81
2023/03/24 01:19:39;;;;;;;9.48;3.10;;;11.70;99.90;;;;;;5082097;28;20035;-80
2023/03/24 01:22:05;;;;;;;8.48;2.90;;;11.70;99.90;;;;;;5083236;28;20165;-80
2023/03/24 01:24:31;;;;;;;5.93;2.97;;;11.60;99.90;;;;;;5087409;28;20147;-81
2023/03/24 01:26:56;;;;;;;6.32;3.38;;;11.60;99.90;;;;;;5083277;28;20459;-80
2023/03/24 01:29:22;;;;;;;5.75;3.03;;;11.70;99.90;;;;;;5087515;28;20054;-87
2023/03/24 01:31:47;;;;;;;4.45;3.15;;;11.60;99.90;;;;;;5083572;28;20039;-80
2023/03/24 01:34:13;;;;;;;12.80;3.83;;;11.60;99.90;;;;;;5067835;28;20023;-82
2023/03/24 01:36:38;;;;;;;5.90;3.13;;;11.60;99.90;;;;;;5085585;28;20159;-81
2023/03/24 01:39:04;;;;;;;10.18;3.42;;;11.60;99.90;;;;;;5082302;28;20123;-81
2023/03/24 01:41:36;;;;;;;9.10;3.10;;;11.60;99.90;;;;;;5080069;28;20093;-79
2023/03/24 01:44:26;;;;;;;6.97;3.25;;;11.60;99.90;;;;;;5084592;28;20472;-80
2023/03/24 01:46:52;;;;;;;6.63;3.35;;;11.60;99.90;;;;;;5084358;28;20381;-81
2023/03/24 01:49:18;;;;;;;8.25;3.85;;;11.60;99.90;;;;;;5086929;28;20119;-80
2023/03/24 01:51:45;;;;;;;6.38;4.07;;;11.70;99.90;;;;;;5085384;28;20111;-79
2023/03/24 01:54:24;;;;;;;5.35;3.55;;;11.70;99.90;;;;;;5066190;28;20070;-80
2023/03/24 01:56:55;;;;;;;8.02;4.30;;;11.70;99.90;;;;;;5085875;28;20052;-80
2023/03/24 01:59:26;;;;;;;6.97;3.17;;;11.70;99.90;;;;;;5083287;28;20027;-80
2023/03/24 02:02:01;;;;;;;7.45;3.85;;;11.60;99.90;;;;;;5068515;28;20111;-81
2023/03/24 02:04:28;;;;;;;6.38;3.25;;;11.60;99.90;;;;;;5085144;28;20024;-80
2023/03/24 02:06:55;;;;;;;5.28;3.42;;;11.60;99.90;;;;;;5084416;28;20036;-82
2023/03/24 02:09:20;;;;;;;7.72;4.05;;;11.60;99.90;;;;;;5084437;28;20081;-81
2023/03/24 02:11:46;;;;;;;7.50;4.05;;;11.60;99.90;;;;;;5082321;28;20032;-81
2023/03/24 02:14:12;;;;;;;4.93;3.72;;;11.60;99.90;;;;;;5083119;28;20115;-80
2023/03/24 02:17:05;;;;;;;8.38;4.75;;;11.60;99.90;;;;;;5083966;28;20494;-81
2023/03/24 02:19:48;;;;;;;9.98;4.75;;;11.60;99.90;;;;;;5085684;28;20024;-80
2023/03/24 02:22:25;;;;;;;6.57;4.20;;;11.70;99.90;;;;;;5082876;28;20020;-81
2023/03/24 02:25:05;;;;;;;5.82;3.33;;;11.70;99.90;;;;;;5084647;28;20032;-80
2023/03/24 02:27:50;;;;;;;5.03;3.72;;;11.60;99.90;;;;;;5079446;28;20020;-81
2023/03/24 02:30:28;;;;;;;6.55;3.72;;;11.60;99.90;;;;;;5076914;28;20025;-81
2023/03/24 02:33:13;;;;;;;8.15;3.63;;;11.60;99.90;;;;;;5077753;28;20538;-80
2023/03/24 02:36:03;;;;;;;6.38;3.17;;;11.60;99.90;;;;;;5081122;28;20035;-80
2023/03/24 02:38:50;;;;;;;5.88;3.92;;;11.60;99.90;;;;;;5068551;28;20032;-81
2023/03/24 02:41:34;;;;;;;9.23;4.30;;;11.60;99.90;;;;;;5086313;28;20039;-80
2023/03/24 02:44:29;;;;;;;6.13;3.60;;;11.60;99.90;;;;;;5087788;28;20481;-80
2023/03/24 02:47:04;;;;;;;8.20;3.75;;;11.60;99.90;;;;;;5088555;28;20511;-80
2023/03/24 02:49:55;;;;;;;9.63;5.57;;;11.60;99.90;;;;;;5085600;28;20540;-80
2023/03/24 02:52:31;;;;;;;7.03;3.50;;;11.60;99.90;;;;;;5086830;28;20191;-81
2023/03/24 02:55:01;;;;;;;7.15;3.70;;;11.60;99.90;;;;;;5085567;28;20673;-80
2023/03/24 02:57:42;;;;;;;7.53;3.85;;;11.60;99.90;;;;;;5087285;28;20020;-80
2023/03/24 03:00:27;;;;;;;4.93;3.00;;;11.60;99.90;;;;;;5088009;28;20035;-80
2023/03/24 03:03:01;;;;;;;7.90;4.53;;;11.60;99.90;;;;;;5082924;28;20024;-81
2023/03/24 03:05:31;;;;;;;7.90;3.93;;;11.60;99.90;;;;;;5087365;28;20044;-80
2023/03/24 03:08:00;;;;;;;4.75;3.75;;;11.70;99.90;;;;;;5080940;28;20473;-80
2023/03/24 03:10:35;;;;;;;6.07;3.35;;;11.70;99.90;;;;;;5078054;28;20016;-80
2023/03/24 03:13:05;;;;;;;;;;;11.70;99.90;;;;;;5085381;28;20085;-80
2023/03/24 03:15:38;;;;;;;8.63;3.30;;;11.80;99.90;;;;;;5083693;28;19922;-80
2023/03/24 03:18:09;;;;;;;11.35;5.18;;;11.80;99.90;;;;;;5082586;28;20544;-80
2023/03/24 03:20:49;;;;;;;3.70;3.03;;;11.80;99.90;;;;;;5088631;28;20489;-81
2023/03/24 03:23:24;;;;;;;14.23;5.55;;;11.90;99.90;;;;;;5084765;28;20032;-81
2023/03/24 03:25:54;;;;;;;12.80;5.50;;;12.00;99.90;;;;;;5082894;28;20036;-83
2023/03/24 03:28:28;;;;;;;10.93;4.10;;;12.00;99.90;;;;;;5088959;28;20036;-81
2023/03/24 03:30:58;;;;;;;8.63;3.75;;;12.00;99.90;;;;;;5089482;28;20384;-80
2023/03/24 03:33:29;;;;;;;6.78;4.45;;;12.10;99.90;;;;;;5068639;28;20035;-80
2023/03/24 03:36:02;;;;;;;4.22;3.65;;;12.10;99.90;;;;;;5085662;28;20039;-81
2023/03/24 03:38:37;;;;;;;5.03;3.20;;;12.10;99.90;;;;;;5082298;28;20032;-81
2023/03/24 03:41:04;;;;;;;5.57;3.33;;;12.00;99.90;;;;;;5085667;28;20016;-82
2023/03/24 03:43:32;;;;;;;4.63;3.25;;;12.10;99.90;;;;;;5088669;28;20389;-80
2023/03/24 03:45:59;;;;;;;11.65;5.45;;;12.10;99.90;;;;;;5087500;28;20028;-80
2023/03/24 03:48:26;;;;;;;9.02;4.93;;;12.10;99.90;;;;;;5079377;28;20115;-81
2023/03/24 03:50:55;;;;;;;7.07;4.65;;;12.10;99.90;;;;;;5084702;28;20031;-81
2023/03/24 03:53:30;;;;;;;5.55;3.83;;;12.10;99.90;;;;;;5069035;28;20293;-81
2023/03/24 03:55:56;;;;;;;;;;;12.10;99.90;;;;;;5083387;28;20071;-80
2023/03/24 03:58:22;;;;;;;8.85;4.57;;;12.20;99.90;;;;;;5084271;28;19954;-80
2023/03/24 04:00:48;;;;;;;7.47;4.32;;;12.20;99.90;;;;;;5084881;28;20541;-80
2023/03/24 04:03:33;;;;;;;7.30;4.25;;;12.20;99.90;;;;;;5089518;28;20021;-79
2023/03/24 04:06:04;;;;;;;8.70;4.00;;;12.20;99.90;;;;;;5082418;28;20039;-81
2023/03/24 04:08:45;;;;;;;8.13;4.40;;;12.20;99.90;;;;;;5080839;28;20038;-82
2023/03/24 04:11:29;;;;;;;6.63;4.65;;;12.20;99.90;;;;;;5084646;28;20020;-81
2023/03/24 04:14:40;;;;;;;7.20;4.93;;;12.20;99.90;;;;;;5087928;28;20028;-81
2023/03/24 04:17:21;;;;;;;7.18;4.50;;;12.20;99.90;;;;;;5066253;28;20032;-82
2023/03/24 04:20:23;;;;;;;7.20;5.10;;;12.20;99.90;;;;;;5084531;28;20111;-80
2023/03/24 04:23:13;;;;;;;8.45;4.75;;;12.20;99.90;;;;;;5057612;28;20036;-83
2023/03/24 04:26:00;;;;;;;7.65;4.35;;;12.20;99.90;;;;;;5088191;28;20028;-83
2023/03/24 04:28:56;;;;;;;6.18;4.47;;;12.20;99.90;;;;;;5085674;28;20031;-80
2023/03/24 04:31:41;;;;;;;9.00;5.63;;;12.20;99.90;;;;;;5086025;28;20384;-80
2023/03/24 04:34:34;;;;;;;6.57;4.47;;;12.10;99.90;;;;;;5082393;28;20034;-80
2023/03/24 04:37:12;;;;;;;7.03;5.07;;;12.20;99.90;;;;;;5087450;28;20036;-81
2023/03/24 04:39:41;;;;;;;7.65;4.43;;;12.20;99.90;;;;;;5079495;28;20385;-82
2023/03/24 04:42:13;;;;;;;5.68;4.38;;;12.20;99.90;;;;;;5078920;28;20039;-80
2023/03/24 04:44:42;;;;;;;8.40;4.25;;;12.20;99.90;;;;;;5085915;28;20051;-79
2023/03/24 04:47:09;;;;;;;6.03;3.90;;;12.20;99.90;;;;;;5086798;28;20359;-80
2023/03/24 04:49:38;;;;;;;7.32;3.80;;;12.20;99.90;;;;;;5083541;28;20043;-80
2023/03/24 04:52:05;;;;;;;7.05;3.97;;;12.10;99.90;;;;;;5082347;28;20553;-80
2023/03/24 04:54:31;;;;;;;9.07;4.35;;;12.10;99.90;;;;;;5083537;28;20052;-81
2023/03/24 04:57:00;;;;;;;7.90;4.63;;;12.10;99.90;;;;;;5079671;28;20039;-80
2023/03/24 04:59:27;;;;;;;5.57;3.88;;;12.10;99.90;;;;;;5086219;28;20034;-80
2023/03/24 05:01:53;;;;;;;7.57;4.65;;;12.10;99.90;;;;;;5087112;28;20032;-80
2023/03/24 05:04:22;;;;;;;5.07;4.03;;;12.00;99.90;;;;;;5088025;28;20455;-81
2023/03/24 05:06:51;;;;;;;6.88;3.85;;;12.10;99.90;;;;;;5083912;28;20024;-87
2023/03/24 05:09:20;;;;;;;5.57;3.50;;;12.00;99.90;;;;;;5082768;28;20103;-81
2023/03/24 05:11:47;;;;;;;5.28;4.00;;;12.00;99.90;;;;;;5084843;28;20178;-81
2023/03/24 05:14:13;;;;;;;7.18;3.47;;;12.00;99.90;;;;;;5083743;28;20024;-80
2023/03/24 05:16:39;;;;;;;9.45;4.03;;;12.00;99.90;;;;;;5079650;28;20100;-81
2023/03/24 05:19:08;;;;;;;8.48;3.78;;;12.00;99.90;;;;;;5079991;28;20416;-80
2023/03/24 05:21:34;;;;;;;10.25;3.92;;;12.00;99.90;;;;;;5083373;28;20495;-80
2023/03/24 05:24:00;;;;;;;4.28;3.53;;;12.00;99.90;;;;;;5083838;28;20051;-79
2023/03/24 05:26:26;;;;;;;7.82;3.45;;;12.10;99.90;;;;;;5083839;28;20028;-80
2023/03/24 05:28:52;;;;;;;4.32;2.75;;;12.10;99.90;;;;;;5081103;28;20028;-79
2023/03/24 05:31:18;;;;;;;7.80;3.70;;;12.10;99.90;;;;;;5084932;28;20016;-82
2023/03/24 05:33:44;;;;;;;5.80;3.40;;;12.10;99.90;;;;;;5079695;28;20016;-81
2023/03/24 05:36:10;;;;;;;5.07;3.38;;;12.10;99.90;;;;;;5078421;28;20031;-80
2023/03/24 05:38:36;;;;;;;6.25;3.05;;;12.10;99.90;;;;;;5078088;28;20024;-81
2023/03/24 05:41:02;;;;;;;6.28;2.92;;;12.00;99.90;;;;;;5076612;28;20038;-80
2023/03/24 05:43:28;;;;;;;7.35;3.05;;;12.00;99.90;;;;;;5081281;28;20043;-81
2023/03/24 05:45:55;;;;;;;4.53;3.03;;;12.00;99.90;;;;;;5084234;28;20555;-81
2023/03/24 05:48:21;;;;;;;8.82;3.42;;;12.00;99.90;;;;;;5083814;28;20038;-81
2023/03/24 05:50:46;;;;;;;6.15;3.28;;;12.00;99.90;;;;;;5078322;28;20107;-80
2023/03/24 05:53:12;;;;;;;6.10;3.63;;;12.00;99.90;;;;;;5078899;28;20337;-80
2023/03/24 05:55:39;;;;;;;5.18;3.58;;;12.00;99.90;;;;;;5083453;28;20048;-80
2023/03/24 05:58:05;;;;;;;9.27;3.95;;;12.00;99.90;;;;;;5064462;28;20366;-79
2023/03/24 06:00:32;;;;;;;6.00;3.40;;;12.00;99.90;;;;;;5085603;28;20477;-80
2023/03/24 06:02:58;;;;;;;8.85;4.32;;;12.00;99.90;;;;;;5081356;28;20494;-80
2023/03/24 06:05:24;;;;;;;7.15;4.53;;;12.00;99.90;;;;;;5087763;28;20084;-80
2023/03/24 06:07:50;;;;;;;7.13;4.35;;;12.00;99.90;;;;;;5087681;28;20147;-81
2023/03/24 06:10:18;;;;;;;9.85;4.68;;;12.10;99.90;;;;;;5078074;28;20111;-86
2023/03/24 06:12:45;;;;;;;9.30;4.30;;;12.10;99.90;;;;;;5082542;28;20043;-80
2023/03/24 06:15:16;;;;;;;5.05;3.90;;;12.10;99.90;;;;;;5091912;28;20040;-81
2023/03/24 06:17:43;;;;;;;11.00;5.10;;;12.10;99.90;;;;;;5087340;28;20465;-81
2023/03/24 06:20:14;;;;;;;5.53;4.53;;;12.10;99.90;;;;;;5084620;28;20028;-83
2023/03/24 06:22:43;;;;;;;14.30;4.65;;;12.10;99.90;;;;;;5087615;28;20063;-80
2023/03/24 06:25:09;;;;;;;10.18;5.00;;;12.10;99.90;;;;;;5087532;28;20039;-80
2023/03/24 06:27:35;;;;;;;13.15;4.95;;;12.10;99.90;;;;;;5071167;28;20031;-80
2023/03/24 06:30:04;;;;;;;17.73;5.88;;;12.20;99.90;;;;;;5087269;28;20024;-82
2023/03/24 06:32:30;;;;;;;7.72;4.88;;;12.20;99.90;;;;;;5090237;28;20448;-79
2023/03/24 06:34:55;;;;;;;7.90;4.82;;;12.30;99.90;;;;;;5089038;28;20070;-79
2023/03/24 06:37:22;;;;;;;9.70;5.65;;;12.30;99.90;;;;;;5089511;28;20032;-84
2023/03/24 06:39:48;;;;;;;7.57;5.00;;;12.20;99.90;;;;;;5089224;28;20359;-79
2023/03/24 06:42:14;;;;;;;7.85;5.45;;;12.30;99.90;;;;;;5089094;28;20428;-83
2023/03/24 06:44:40;;;;;;;10.40;5.78;;;12.30;99.90;;;;;;5088028;28;20028;-81
2023/03/24 06:47:06;;;;;;;10.43;5.38;;;12.40;99.90;;;;;;5090082;28;20181;-83
2023/03/24 06:49:33;;;;;;;11.07;6.13;;;12.40;99.90;;;;;;5079532;28;20033;-86
2023/03/24 06:52:00;;;;;;;12.75;5.50;;;12.40;99.90;;;;;;5091335;28;20469;-82
2023/03/24 06:54:27;;;;;;;10.63;6.13;;;12.40;99.90;;;;;;5088429;28;20051;-82
2023/03/24 06:56:52;;;;;;;9.60;5.68;;;12.50;99.90;;;;;;5083387;28;20040;-85
2023/03/24 06:59:22;;;;;;;7.85;5.45;;;12.50;99.90;;;;;;5084852;28;20033;-83
2023/03/24 07:01:49;;;;;;;8.85;6.07;;;12.40;99.90;;;;;;5069396;28;21627;-83
2023/03/24 07:04:16;;;;;;;7.75;5.93;;;12.40;99.90;;;;;;5090508;28;20038;-84
2023/03/24 07:06:42;;;;;;;9.30;5.78;;;12.50;99.90;;;;;;5085857;28;20028;-86
2023/03/24 07:09:08;;;;;;;15.68;5.50;;;12.50;99.90;;;;;;5089148;28;20031;-84
2023/03/24 07:11:33;;;;;;;9.57;5.25;;;12.50;99.90;;;;;;5091573;28;20115;-84
2023/03/24 07:13:59;;;;;;;9.43;5.95;;;12.60;99.90;;;;;;5085985;28;20040;-83
2023/03/24 07:16:27;;;;;;;6.90;5.13;;;12.50;99.90;;;;;;5090099;28;20036;-83
2023/03/24 07:18:53;;;;;;;19.40;6.32;;;12.60;99.90;;;;;;5086046;28;20028;-88
2023/03/24 07:21:19;;;;;;;9.25;5.43;;;12.60;99.90;;;;;;5084464;28;20444;-85
2023/03/24 07:23:44;;;;;;;10.57;5.20;;;12.60;99.90;;;;;;5070911;28;20520;-85
2023/03/24 07:26:10;;;;;;;10.43;6.05;;;12.70;99.90;;;;;;5089764;28;20267;-86
2023/03/24 07:28:36;;;;;;;8.65;5.60;;;12.70;99.90;;;;;;5086793;28;20029;-83
2023/03/24 07:31:05;;;;;;;9.38;5.20;;;12.70;99.90;;;;;;5088652;28;20039;-84
2023/03/24 07:33:31;;;;;;;8.45;4.88;;;12.70;99.90;;;;;;5090459;28;20093;-84
2023/03/24 07:35:58;;;;;;;8.68;5.32;;;12.70;99.90;;;;;;5088670;28;20031;-87
2023/03/24 07:38:24;;;;;;;7.25;5.15;;;12.80;99.90;;;;;;5089233;28;20024;-86
2023/03/24 07:40:50;;;;;;;8.27;4.88;;;12.80;99.90;;;;;;5088235;28;20474;-84
2023/03/24 07:43:16;;;;;;;8.10;4.78;;;12.80;99.90;;;;;;5067806;28;20170;-85
2023/03/24 07:45:44;;;;;;;7.07;4.82;;;12.80;99.90;;;;;;5087846;28;20469;-84
2023/03/24 07:48:10;;;;;;;6.38;4.50;;;12.80;99.90;;;;;;5082749;28;20287;-82
2023/03/24 07:50:36;;;;;;;7.97;5.13;;;12.80;99.90;;;;;;5085914;28;20497;-82
2023/03/24 07:53:01;;;;;;;8.32;5.07;;;12.90;99.90;;;;;;5083347;28;20462;-82
2023/03/24 07:55:27;;;;;;;9.88;5.03;;;12.90;99.90;;;;;;5084309;28;20056;-83
2023/03/24 07:57:52;;;;;;;10.73;5.07;;;12.90;99.90;;;;;;5086863;28;20027;-83
2023/03/24 08:00:19;;;;;;;12.63;5.63;;;13.00;99.90;;;;;;5084988;28;20136;-83
2023/03/24 08:02:46;;;;;;;5.22;4.53;;;13.10;99.90;;;;;;5086429;28;20123;-82
2023/03/24 08:05:13;;;;;;;11.93;4.28;;;13.10;99.90;;;;;;5083709;28;20024;-82
2023/03/24 08:07:43;;;;;;;6.18;4.18;;;13.20;99.90;;;;;;5088427;28;20495;-83
2023/03/24 08:10:14;;;;;;;8.68;4.03;;;13.30;99.90;;;;;;5089500;28;20452;-83
2023/03/24 08:12:40;;;;;;;8.18;4.55;;;13.40;99.90;;;;;;5085539;28;20036;-80
2023/03/24 08:15:07;;;;;;;7.72;3.33;;;13.50;99.90;;;;;;5080069;28;20461;-84
2023/03/24 08:17:33;;;;;;;9.20;4.05;;;13.70;99.90;;;;;;5083952;28;20044;-80
2023/03/24 08:19:59;;;;;;;6.13;4.05;;;13.70;99.90;;;;;;5089400;28;20358;-81
2023/03/24 08:22:26;;;;;;;13.13;4.70;;;13.80;99.90;;;;;;5086032;28;20032;-84
2023/03/24 08:24:51;;;;;;;6.43;4.03;;;13.70;99.90;;;;;;5082744;28;20477;-83
2023/03/24 08:27:17;;;;;;;8.05;3.53;;;13.80;99.90;;;;;;5088678;28;20051;-83
2023/03/24 08:29:42;;;;;;;4.30;3.80;;;13.70;99.90;;;;;;5071052;28;20044;-83
2023/03/24 08:32:08;;;;;;;5.68;3.70;;;13.70;99.90;;;;;;5089514;28;20438;-83
2023/03/24 08:34:34;;;;;;;4.85;3.58;;;13.60;99.90;;;;;;5083817;28;20035;-85
2023/03/24 08:37:00;;;;;;;5.10;3.70;;;13.60;99.90;;;;;;5085423;28;20036;-82
2023/03/24 08:39:25;;;;;;;7.70;3.55;;;13.60;99.90;;;;;;5080572;28;20025;-82
2023/03/24 08:41:53;;;;;;;6.97;3.47;;;13.70;99.90;;;;;;5077414;28;20082;-85
2023/03/24 08:44:19;;;;;;;3.67;2.58;;;13.60;99.90;;;;;;5085920;28;20031;-85
2023/03/24 08:46:45;;;;;;;2.05;1.70;;;13.60;99.90;;;;;;5089091;28;20106;-83
2023/03/24 08:49:10;;;;;;;3.90;2.08;;;13.50;99.90;;;;;;5089110;28;20024;-84
2023/03/24 08:51:36;;;;;;;1.75;1.30;;;13.30;99.90;;;;;;5088531;28;20050;-83
2023/03/24 08:54:02;;;;;;;2.60;1.20;;;13.10;99.90;;;;;;5078026;28;20035;-83
2023/03/24 08:56:28;;;;;;;3.05;1.15;;;13.10;99.90;;;;;;5068168;28;20044;-82
2023/03/24 08:58:54;;;;;;;4.90;1.10;;;13.00;99.90;;;;;;5050223;28;20052;-82
2023/03/24 09:01:21;;;;;;;2.47;1.10;;;13.00;99.90;;;;;;5065274;28;20048;-83
2023/03/24 09:03:47;;;;;;;5.40;1.63;;;13.10;99.90;;;;;;5068105;28;20036;-83
2023/03/24 09:06:13;;;;;;;2.35;1.40;;;13.10;99.90;;;;;;5067191;28;20035;-83
2023/03/24 09:08:39;;;;;;;2.92;1.52;;;13.20;99.90;;;;;;5067203;28;20084;-82
2023/03/24 09:11:05;;;;;;;6.40;1.35;;;13.30;99.90;;;;;;5059995;28;20059;-83
2023/03/24 09:13:31;;;;;;;3.38;1.50;;;13.50;99.90;;;;;;5068060;28;21134;-83
2023/03/24 09:16:00;;;;;;;4.93;1.17;;;13.60;99.90;;;;;;5068478;28;20067;-82
2023/03/24 09:18:26;;;;;;;6.05;2.33;;;13.70;99.90;;;;;;5050216;28;20489;-84
2023/03/24 09:20:52;;;;;;;3.95;1.70;;;13.70;99.90;;;;;;5067761;28;20033;-85
2023/03/24 09:23:19;;;;;;;12.20;5.40;;;13.70;99.90;;;;;;5054428;28;20492;-84
2023/03/24 09:25:45;;;;;;;2.42;1.83;;;13.60;99.90;;;;;;5067775;28;20342;-82
2023/03/24 09:28:12;;;;;;;4.43;1.70;;;13.70;99.90;;;;;;5065453;28;20123;-83
2023/03/24 09:30:38;;;;;;;2.78;1.35;;;13.70;99.90;;;;;;5066910;28;20094;-83
2023/03/24 09:33:03;;;;;;;4.35;1.95;;;13.80;99.90;;;;;;5049814;28;20028;-84
2023/03/24 09:35:29;;;;;;;3.15;1.73;;;13.80;99.90;;;;;;5066255;28;20036;-84
2023/03/24 09:37:54;;;;;;;3.78;1.75;;;13.80;99.90;;;;;;5065766;28;20156;-84
2023/03/24 09:40:30;;;;;;;5.35;2.05;;;13.80;99.90;;;;;;5065382;28;20028;-84
2023/03/24 09:43:26;;;;;;;4.07;1.52;;;13.80;99.90;;;;;;5067781;28;20139;-84
2023/03/24 09:45:57;;;;;;;3.80;1.38;;;13.90;99.90;;;;;;5063953;28;20113;-83
2023/03/24 09:48:45;;;;;;;3.25;1.38;;;14.00;99.90;;;;;;5067702;28;20029;-82
2023/03/24 09:51:23;;;;;;;5.45;1.95;;;14.00;99.90;;;;;;5063576;28;20508;-81
2023/03/24 09:53:55;;;;;;;2.88;1.63;;;14.00;99.90;;;;;;5063137;28;20389;-84
2023/03/24 09:56:22;;;;;;;4.45;1.92;;;14.00;99.90;;;;;;5079384;28;20554;-82
2023/03/24 09:58:58;;;;;;;6.47;2.30;;;14.00;99.90;;;;;;5066244;28;20044;-82
2023/03/24 10:01:25;;;;;;;7.68;1.60;;;13.90;99.90;;;;;;5069658;28;20114;-83
2023/03/24 10:03:55;;;;;;;6.75;1.70;;;13.90;99.90;;;;;;5086743;28;20055;-85
2023/03/24 10:06:32;;;;;;;9.15;1.40;;;14.00;99.90;;;;;;5087519;28;20078;-81
2023/03/24 10:08:58;;;;;;;4.32;2.25;;;13.90;99.90;;;;;;5080633;28;20032;-87
2023/03/24 10:11:41;;;;;;;7.50;2.03;;;13.90;99.90;;;;;;5084345;28;20040;-86
2023/03/24 10:14:45;;;;;;;3.00;1.50;;;13.90;99.90;;;;;;5083735;28;20028;-84
2023/03/24 10:17:22;;;;;;;2.72;1.55;;;13.90;99.90;;;;;;5050835;28;20040;-85
2023/03/24 10:20:07;;;;;;;8.95;1.67;;;14.00;99.90;;;;;;5082404;28;20468;-83
2023/03/24 10:22:41;;;;;;;3.75;1.48;;;14.00;99.90;;;;;;5079746;28;20047;-83
2023/03/24 10:25:37;;;;;;;3.78;1.60;;;14.10;99.90;;;;;;5086110;28;20032;-83
2023/03/24 10:28:26;;;;;;;9.10;1.75;;;14.20;99.90;;;;;;5033653;28;20036;-83
2023/03/24 10:30:56;;;;;;;6.60;1.50;;;14.50;99.90;;;;;;5085155;28;20055;-82
2023/03/24 10:33:22;;;;;;;3.63;1.33;;;14.70;99.90;;;;;;5079594;28;20028;-88
2023/03/24 10:36:05;;;;;;;3.17;1.17;;;14.80;99.90;;;;;;5080502;28;20055;-82
2023/03/24 10:38:31;;;;;;;2.47;1.25;;;14.70;99.90;;;;;;5083604;28;20035;-82
2023/03/24 10:40:57;;;;;;;3.38;1.15;;;14.60;99.90;;;;;;5066540;28;20409;-85
2023/03/24 10:43:24;;;;;;;2.30;1.30;;;14.50;99.90;;;;;;5082002;28;20020;-87
2023/03/24 10:45:56;;;;;;;2.47;1.23;;;14.40;99.90;;;;;;5086050;28;20032;-83
2023/03/24 10:48:43;;;;;;;4.88;1.30;;;14.30;99.90;;;;;;5084265;28;20028;-87
2023/03/24 10:51:15;;;;;;;4.05;1.10;;;14.30;99.90;;;;;;5085448;28;20024;-85
2023/03/24 10:53:46;;;;;;;8.63;1.40;;;14.30;99.90;;;;;;5084582;28;20101;-85
2023/03/24 10:56:36;;;;;;;4.93;1.50;;;14.30;99.90;;;;;;5087085;28;20389;-88
2023/03/24 10:59:02;;;;;;;4.75;2.42;;;14.40;99.90;;;;;;5085080;28;20024;-83
2023/03/24 11:01:29;;;;;;;6.03;1.55;;;14.50;99.90;;;;;;5091134;28;20031;-84
2023/03/24 11:04:03;;;;;;;2.65;1.40;;;14.60;99.90;;;;;;5088223;28;20032;-83
2023/03/24 11:06:30;;;;;;;1.50;1.20;;;14.60;99.90;;;;;;5089837;28;20028;-85
2023/03/24 11:09:16;;;;;;;4.95;1.75;;;14.60;99.90;;;;;;5090722;28;20055;-83
2023/03/24 11:11:42;;;;;;;;;;;14.60;99.90;;;;;;5080990;28;20020;-85
2023/03/24 11:14:24;;;;;;;2.35;1.17;;;14.70;99.90;;;;;;5080781;28;19966;-83
2023/03/24 11:16:51;;;;;;;7.38;1.50;;;14.70;99.90;;;;;;5090248;28;20040;-83
2023/03/24 11:19:23;;;;;;;6.10;1.40;;;14.60;99.90;;;;;;5070438;28;20078;-81
2023/03/24 11:21:51;;;;;;;3.08;1.25;;;14.50;99.90;;;;;;5083038;28;20384;-83
2023/03/24 11:24:19;;;;;;;6.90;1.50;;;14.50;99.90;;;;;;5090687;28;20039;-84
2023/03/24 11:26:57;;;;;;;2.22;1.10;;;14.40;99.90;;;;;;5085349;28;20023;-83
2023/03/24 11:29:24;;;;;;;5.60;1.40;;;14.40;99.90;;;;;;5080857;28;20016;-83
2023/03/24 11:32:18;;;;;;;2.45;1.10;;;14.40;99.90;;;;;;5082363;28;20028;-84
2023/03/24 11:34:48;;;;;;;3.13;1.45;;;14.30;99.90;;;;;;5074960;28;20383;-82
2023/03/24 11:37:18;;;;;;;4.47;1.30;;;14.30;99.90;;;;;;5079325;28;20043;-84
2023/03/24 11:40:03;;;;;;;3.83;1.30;;;14.30;99.90;;;;;;5086990;28;20051;-84
2023/03/24 11:42:29;;;;;;;4.15;0.95;;;14.20;99.90;;;;;;5086974;28;20350;-83
2023/03/24 11:44:55;;;;;;;4.25;1.40;;;14.20;99.90;;;;;;5086893;28;20020;-85
2023/03/24 11:47:29;;;;;;;2.67;1.25;;;14.20;99.90;;;;;;5086053;28;20560;-84
2023/03/24 11:50:10;;;;;;;3.07;1.27;;;14.20;99.90;;;;;;5084322;28;20396;-84
2023/03/24 11:52:54;;;;;;;3.38;1.33;;;14.10;99.90;;;;;;5086744;28;20431;-84
2023/03/24 11:55:55;;;;;;;5.30;1.55;;;14.20;99.90;;;;;;5084544;28;20044;-82
2023/03/24 11:58:39;;;;;;;5.25;1.38;;;14.30;99.90;;;;;;5041855;28;20036;-83
2023/03/24 12:01:09;;;;;;;3.78;1.60;;;14.30;99.90;;;;;;5084154;28;20048;-83
2023/03/24 12:04:03;;;;;;;3.38;0.98;;;14.50;99.90;;;;;;5083898;28;20028;-85
2023/03/24 12:06:39;;;;;;;5.68;1.40;;;14.50;99.90;;;;;;5083290;28;20066;-83
2023/03/24 12:09:08;;;;;;;3.30;1.10;;;14.60;99.90;;;;;;5080124;28;20028;-83
2023/03/24 12:11:52;;;;;;;2.83;1.10;;;14.60;99.90;;;;;;5083697;28;20024;-84
2023/03/24 12:14:26;;;;;;;1.95;1.10;;;14.60;99.90;;;;;;5085819;28;20056;-83
2023/03/24 12:17:06;;;;;;;6.97;1.17;;;14.50;99.90;;;;;;5079585;28;20076;-83
2023/03/24 12:19:36;;;;;;;3.50;1.20;;;14.40;99.90;;;;;;5080570;28;20119;-84
2023/03/24 12:22:34;;;;;;;4.00;1.63;;;14.40;99.90;;;;;;5081644;28;20087;-83
2023/03/24 12:25:03;;;;;;;4.15;0.93;;;14.40;99.90;;;;;;5079918;28;20533;-84
2023/03/24 12:27:57;;;;;;;1.90;1.15;;;14.30;99.90;;;;;;5080521;28;20050;-83
2023/03/24 12:30:47;;;;;;;3.80;1.17;;;14.30;99.90;;;;;;5082368;28;20082;-87
2023/03/24 12:33:40;;;;;;;7.15;1.75;;;14.20;99.90;;;;;;5085821;28;20043;-83
2023/03/24 12:36:14;;;;;;;2.10;1.40;;;14.20;99.90;;;;;;5079969;28;20115;-83
2023/03/24 12:39:03;;;;;;;5.53;2.10;;;14.10;99.90;;;;;;5084109;28;20513;-81
2023/03/24 12:41:53;;;;;;;3.28;1.58;;;14.10;99.90;;;;;;5083635;28;20434;-83
2023/03/24 12:44:32;;;;;;;5.13;1.73;;;14.00;99.90;;;;;;5084584;28;20427;-83
2023/03/24 12:46:58;;;;;;;5.60;1.80;;;14.00;99.90;;;;;;5079817;28;20544;-84
2023/03/24 12:49:49;;;;;;;3.33;1.65;;;13.90;99.90;;;;;;5087257;28;20024;-83
2023/03/24 12:52:36;;;;;;;2.70;1.45;;;13.90;99.90;;;;;;5082840;28;20107;-82
2023/03/24 12:55:13;;;;;;;5.88;1.35;;;13.90;99.90;;;;;;5087304;28;20052;-83
2023/03/24 12:57:58;;;;;;;3.10;1.17;;;14.00;99.90;;;;;;5079017;28;20036;-83
2023/03/24 13:00:35;;;;;;;4.45;1.40;;;14.20;99.90;;;;;;5084152;28;20028;-83
2023/03/24 13:03:08;;;;;;;7.63;2.08;;;14.40;99.90;;;;;;5060357;28;20625;-84
2023/03/24 13:05:45;;;;;;;7.97;1.95;;;14.40;99.90;;;;;;5081259;28;20529;-82
2023/03/24 13:08:17;;;;;;;5.57;1.48;;;14.50;99.90;;;;;;5083657;28;20028;-85
2023/03/24 13:10:46;;;;;;;6.53;1.83;;;14.50;99.90;;;;;;5087386;28;20404;-84